createdAt,value
2019-02-22T00:00:38.171Z,9.60
2019-02-22T00:03:08.423Z,9.60
2019-02-22T00:05:36.975Z,9.60
2019-02-22T00:08:05.504Z,9.60
2019-02-22T00:10:34.177Z,9.60
2019-02-22T00:13:02.710Z,9.60
2019-02-22T00:15:31.374Z,9.60
2019-02-22T00:18:07.486Z,9.60
2019-02-22T00:20:41.194Z,9.50
2019-02-22T00:23:08.988Z,9.60
2019-02-22T00:25:37.541Z,9.60
2019-02-22T00:28:06.280Z,9.60
2019-02-22T00:30:35.055Z,9.60
2019-02-22T00:33:03.682Z,9.60
2019-02-22T00:35:32.296Z,9.60
2019-02-22T00:38:03.743Z,9.60
2019-02-22T00:40:32.276Z,9.60
2019-02-22T00:43:00.874Z,9.60
2019-02-22T00:45:29.437Z,9.60
2019-02-22T00:47:59.649Z,9.60
2019-02-22T00:50:28.244Z,9.60
2019-02-22T00:52:56.802Z,9.60
2019-02-22T00:55:25.347Z,9.60
2019-02-22T00:57:53.961Z,9.60
2019-02-22T01:00:22.528Z,9.60
2019-02-22T01:02:51.061Z,9.60
2019-02-22T01:05:19.646Z,9.60
2019-02-22T01:07:48.217Z,9.60
2019-02-22T01:10:16.761Z,9.60
2019-02-22T01:12:45.327Z,9.60
2019-02-22T01:15:13.953Z,9.60
2019-02-22T01:17:48.670Z,9.50
2019-02-22T01:20:37.690Z,9.40
2019-02-22T01:23:06.186Z,9.40
2019-02-22T01:25:34.768Z,9.40
2019-02-22T01:28:08.183Z,9.40
2019-02-22T01:30:38.981Z,9.40
2019-02-22T01:33:07.594Z,9.40
2019-02-22T01:35:36.185Z,9.40
2019-02-22T01:38:04.806Z,9.40
2019-02-22T01:40:43.668Z,9.50
2019-02-22T01:43:07.802Z,9.50
2019-02-22T01:45:36.333Z,9.50
2019-02-22T01:48:04.988Z,9.50
2019-02-22T01:50:33.798Z,9.50
2019-02-22T01:53:05.025Z,9.50
2019-02-22T01:55:33.581Z,9.50
2019-02-22T01:58:05.174Z,9.50
2019-02-22T02:00:33.738Z,9.60
2019-02-22T02:03:05.466Z,9.60
2019-02-22T02:05:34.044Z,9.60
2019-02-22T02:08:08.572Z,9.60
2019-02-22T02:10:37.121Z,9.60
2019-02-22T02:13:05.702Z,9.60
2019-02-22T02:15:34.193Z,9.60
2019-02-22T02:18:02.772Z,9.50
2019-02-22T02:20:32.992Z,9.60
2019-02-22T02:23:01.533Z,9.50
2019-02-22T02:25:32.623Z,9.50
2019-02-22T02:28:01.303Z,9.50
2019-02-22T02:30:29.844Z,9.50
2019-02-22T02:32:58.560Z,9.50
2019-02-22T02:35:27.186Z,9.50
2019-02-22T02:37:55.757Z,9.50
2019-02-22T02:40:24.233Z,9.50
2019-02-22T02:42:53.114Z,9.50
2019-02-22T02:45:24.609Z,9.40
2019-02-22T02:47:53.152Z,9.40
2019-02-22T02:50:21.720Z,9.40
2019-02-22T02:52:50.208Z,9.40
2019-02-22T02:55:34.998Z,9.40
2019-02-22T02:58:03.675Z,9.30
2019-02-22T03:00:32.291Z,9.30
2019-02-22T03:03:00.776Z,9.20
2019-02-22T03:05:33.682Z,9.20
2019-02-22T03:08:02.177Z,9.10
2019-02-22T03:10:31.528Z,9.00
2019-02-22T03:13:05.563Z,9.00
2019-02-22T03:15:34.522Z,8.90
2019-02-22T03:18:05.826Z,8.90
2019-02-22T03:20:37.526Z,8.90
2019-02-22T03:23:08.972Z,8.90
2019-02-22T03:25:37.541Z,8.90
2019-02-22T03:28:06.113Z,8.90
2019-02-22T03:30:34.735Z,9.00
2019-02-22T03:33:03.301Z,8.90
2019-02-22T03:35:34.588Z,8.90
2019-02-22T03:38:05.867Z,9.00
2019-02-22T03:40:33.368Z,9.00
2019-02-22T03:43:01.915Z,9.00
2019-02-22T03:45:30.532Z,9.00
2019-02-22T03:48:01.874Z,9.10
2019-02-22T03:50:30.526Z,9.00
2019-02-22T03:53:00.746Z,9.10
2019-02-22T03:55:29.436Z,9.10
2019-02-22T03:57:57.940Z,9.10
2019-02-22T04:00:26.489Z,9.10
2019-02-22T04:02:55.106Z,9.10
2019-02-22T04:05:23.687Z,9.10
2019-02-22T04:07:52.258Z,9.10
2019-02-22T04:10:20.905Z,9.20
2019-02-22T04:12:49.452Z,9.10
2019-02-22T04:15:18.002Z,9.10
2019-02-22T04:17:46.592Z,9.10
2019-02-22T04:20:15.134Z,9.10
2019-02-22T04:22:44.535Z,9.10
2019-02-22T04:25:13.539Z,9.10
2019-02-22T04:27:42.020Z,9.10
2019-02-22T04:30:11.000Z,9.10
2019-02-22T04:32:39.498Z,9.10
2019-02-22T04:35:14.118Z,9.10
2019-02-22T04:37:38.506Z,9.10
2019-02-22T04:40:07.381Z,9.10
2019-02-22T04:42:35.912Z,9.20
2019-02-22T04:45:05.307Z,9.10
2019-02-22T04:47:33.917Z,9.20
2019-02-22T04:50:02.444Z,9.20
2019-02-22T04:52:31.373Z,9.20
2019-02-22T04:55:01.462Z,9.10
2019-02-22T04:57:30.021Z,9.10
2019-02-22T04:59:58.497Z,9.10
2019-02-22T05:02:27.058Z,9.10
2019-02-22T05:04:55.611Z,9.10
2019-02-22T05:07:24.204Z,9.10
2019-02-22T05:09:52.753Z,9.10
2019-02-22T05:12:21.293Z,9.00
2019-02-22T05:14:49.880Z,9.10
2019-02-22T05:17:20.906Z,9.10
2019-02-22T05:19:51.110Z,9.10
2019-02-22T05:22:19.659Z,9.10
2019-02-22T05:24:48.249Z,9.10
2019-02-22T05:27:16.878Z,9.10
2019-02-22T05:29:45.439Z,9.10
2019-02-22T05:32:14.027Z,9.10
2019-02-22T05:34:42.604Z,9.10
2019-02-22T05:37:11.164Z,9.10
2019-02-22T05:39:41.846Z,9.10
2019-02-22T05:42:22.571Z,9.20
2019-02-22T05:44:43.870Z,9.20
2019-02-22T05:47:13.997Z,9.20
2019-02-22T05:49:42.534Z,9.20
2019-02-22T05:52:11.191Z,9.20
2019-02-22T05:54:39.871Z,9.30
2019-02-22T05:57:08.411Z,9.20
2019-02-22T05:59:37.001Z,9.20
2019-02-22T06:02:05.902Z,9.30
2019-02-22T06:04:34.433Z,9.30
2019-02-22T06:07:03.047Z,9.30
2019-02-22T06:09:31.593Z,9.20
2019-02-22T06:12:00.157Z,9.20
2019-02-22T06:14:28.740Z,9.20
2019-02-22T06:16:57.301Z,9.20
2019-02-22T06:19:25.836Z,9.20
2019-02-22T06:21:54.389Z,9.10
2019-02-22T06:24:22.867Z,9.10
2019-02-22T06:26:51.463Z,9.10
2019-02-22T06:29:20.003Z,9.10
2019-02-22T06:31:48.533Z,9.10
2019-02-22T06:34:24.853Z,9.10
2019-02-22T06:37:01.779Z,9.10
2019-02-22T06:39:25.671Z,9.10
2019-02-22T06:41:55.745Z,9.20
2019-02-22T06:44:25.128Z,9.20
2019-02-22T06:46:53.713Z,9.20
2019-02-22T06:49:22.244Z,9.20
2019-02-22T06:51:50.779Z,9.20
2019-02-22T06:54:19.353Z,9.20
2019-02-22T06:56:47.968Z,9.10
2019-02-22T06:59:16.507Z,9.10
2019-02-22T07:01:50.099Z,9.10
2019-02-22T07:04:18.767Z,9.10
2019-02-22T07:06:47.368Z,9.10
2019-02-22T07:09:15.912Z,9.10
2019-02-22T07:11:48.793Z,9.10
2019-02-22T07:14:17.371Z,9.20
2019-02-22T07:16:48.871Z,9.20
2019-02-22T07:19:17.463Z,9.20
2019-02-22T07:21:52.677Z,9.30
2019-02-22T07:24:22.230Z,9.20
2019-02-22T07:26:56.245Z,9.20
2019-02-22T07:29:24.805Z,9.20
2019-02-22T07:32:02.686Z,9.20
2019-02-22T07:34:23.652Z,9.30
2019-02-22T07:36:52.381Z,9.30
2019-02-22T07:39:27.772Z,9.30
2019-02-22T07:41:51.123Z,9.30
2019-02-22T07:44:19.666Z,9.40
2019-02-22T07:46:50.716Z,9.40
2019-02-22T07:49:22.324Z,9.40
2019-02-22T07:51:52.542Z,9.40
2019-02-22T07:54:21.082Z,9.40
2019-02-22T07:56:49.604Z,9.40
2019-02-22T07:59:18.442Z,9.40
2019-02-22T08:01:48.634Z,9.40
2019-02-22T08:04:17.175Z,9.40
2019-02-22T08:06:45.784Z,9.50
2019-02-22T08:09:14.333Z,9.50
2019-02-22T08:11:42.883Z,9.60
2019-02-22T08:14:11.459Z,9.60
2019-02-22T08:16:39.993Z,9.60
2019-02-22T08:19:11.150Z,9.60
2019-02-22T08:21:43.097Z,9.70
2019-02-22T08:24:12.229Z,9.70
2019-02-22T08:26:40.712Z,9.70
2019-02-22T08:29:10.130Z,9.70
2019-02-22T08:31:41.338Z,9.70
2019-02-22T08:34:09.967Z,9.70
2019-02-22T08:36:44.202Z,9.70
2019-02-22T08:39:12.739Z,9.80
2019-02-22T08:41:41.306Z,9.80
2019-02-22T08:44:12.780Z,9.80
2019-02-22T08:46:41.344Z,9.90
2019-02-22T08:49:31.040Z,9.90
2019-02-22T08:51:59.553Z,9.80
2019-02-22T08:54:32.526Z,9.90
2019-02-22T08:57:03.816Z,9.90
2019-02-22T08:59:32.370Z,9.80
2019-02-22T09:02:01.058Z,9.90
2019-02-22T09:04:29.632Z,9.90
2019-02-22T09:06:58.189Z,9.80
2019-02-22T09:09:26.731Z,9.90
2019-02-22T09:11:57.568Z,9.90
2019-02-22T09:14:25.875Z,9.90
2019-02-22T09:16:54.424Z,9.90
2019-02-22T09:19:23.020Z,9.90
2019-02-22T09:21:54.543Z,9.90
2019-02-22T09:24:23.167Z,9.90
2019-02-22T09:27:00.411Z,10.00
2019-02-22T09:29:28.989Z,10.00
2019-02-22T09:31:58.435Z,9.90
2019-02-22T09:34:29.581Z,9.90
2019-02-22T09:36:58.099Z,9.90
2019-02-22T09:39:26.746Z,9.90
2019-02-22T09:41:55.242Z,10.00
2019-02-22T09:44:30.180Z,10.00
2019-02-22T09:46:58.755Z,10.00
2019-02-22T09:49:27.437Z,10.00
2019-02-22T09:51:55.961Z,10.00
2019-02-22T09:54:24.579Z,10.00
2019-02-22T09:56:57.434Z,9.90
2019-02-22T09:59:37.485Z,9.90
2019-02-22T10:02:07.036Z,10.00
2019-02-22T10:04:35.514Z,10.00
2019-02-22T10:07:05.595Z,10.00
2019-02-22T10:09:38.471Z,10.10
2019-02-22T10:12:07.014Z,10.10
2019-02-22T10:14:35.600Z,10.10
2019-02-22T10:17:04.133Z,10.20
2019-02-22T10:19:32.625Z,10.20
2019-02-22T10:22:03.982Z,10.20
2019-02-22T10:24:34.348Z,10.30
2019-02-22T10:27:02.941Z,10.30
2019-02-22T10:29:40.195Z,10.40
2019-02-22T10:32:11.611Z,10.40
2019-02-22T10:34:48.162Z,10.30
2019-02-22T10:37:16.747Z,10.30
2019-02-22T10:39:45.286Z,10.30
2019-02-22T10:42:13.830Z,10.30
2019-02-22T10:44:42.417Z,10.30
2019-02-22T10:47:11.045Z,10.30
2019-02-22T10:49:41.345Z,10.40
2019-02-22T10:52:12.720Z,10.50
2019-02-22T10:54:43.971Z,10.40
2019-02-22T10:57:12.528Z,10.30
2019-02-22T10:59:41.285Z,10.40
2019-02-22T11:02:09.874Z,10.30
2019-02-22T11:04:45.851Z,10.30
2019-02-22T11:07:14.914Z,10.30
2019-02-22T11:10:09.490Z,10.20
2019-02-22T11:12:38.088Z,10.20
2019-02-22T11:15:13.938Z,10.20
2019-02-22T11:17:44.370Z,10.10
2019-02-22T11:20:15.673Z,10.10
2019-02-22T11:22:47.031Z,10.10
2019-02-22T11:25:20.805Z,10.20
2019-02-22T11:27:49.661Z,10.20
2019-02-22T11:30:23.766Z,10.20
2019-02-22T11:32:55.302Z,10.20
2019-02-22T11:35:23.859Z,10.30
2019-02-22T11:37:53.961Z,10.30
2019-02-22T11:40:22.576Z,10.40
2019-02-22T11:42:51.190Z,10.40
2019-02-22T11:45:19.738Z,10.30
2019-02-22T11:47:48.394Z,10.30
2019-02-22T11:50:16.964Z,10.20
2019-02-22T11:52:45.509Z,10.20
2019-02-22T11:55:14.258Z,10.30
2019-02-22T11:57:42.949Z,10.30
2019-02-22T12:00:20.520Z,10.30
2019-02-22T12:02:49.043Z,10.40
2019-02-22T12:05:18.457Z,10.40
2019-02-22T12:07:47.168Z,10.40
2019-02-22T12:10:15.898Z,10.40
2019-02-22T12:12:45.431Z,10.50
2019-02-22T12:15:18.931Z,10.50
2019-02-22T12:17:53.199Z,10.50
2019-02-22T12:20:27.689Z,10.60
2019-02-22T12:22:56.855Z,10.60
2019-02-22T12:25:25.644Z,10.70
2019-02-22T12:27:54.432Z,10.70
2019-02-22T12:30:25.571Z,10.60
2019-02-22T12:32:53.897Z,10.50
2019-02-22T12:35:26.640Z,10.60
2019-02-22T12:37:55.184Z,10.60
2019-02-22T12:40:24.605Z,10.50
2019-02-22T12:42:53.118Z,10.50
2019-02-22T12:45:21.734Z,10.50
2019-02-22T12:47:53.047Z,10.50
2019-02-22T12:50:24.311Z,10.50
2019-02-22T12:52:52.976Z,10.50
2019-02-22T12:55:21.748Z,10.40
2019-02-22T12:57:50.354Z,10.40
2019-02-22T13:00:20.243Z,10.40
2019-02-22T13:02:48.834Z,10.40
2019-02-22T13:05:23.547Z,10.50
2019-02-22T13:07:52.785Z,10.40
2019-02-22T13:10:22.483Z,10.40
2019-02-22T13:12:51.111Z,10.40
2019-02-22T13:15:19.718Z,10.50
2019-02-22T13:17:48.284Z,10.60
2019-02-22T13:20:16.835Z,10.60
2019-02-22T13:22:45.371Z,10.70
2019-02-22T13:25:17.356Z,10.60
2019-02-22T13:28:07.602Z,10.60
2019-02-22T13:30:38.251Z,10.70
2019-02-22T13:33:06.505Z,10.60
2019-02-22T13:35:36.787Z,10.60
2019-02-22T13:38:05.343Z,10.60
2019-02-22T13:40:36.794Z,10.50
2019-02-22T13:43:05.533Z,10.50
2019-02-22T13:45:35.566Z,10.50
2019-02-22T13:48:05.671Z,10.50
2019-02-22T13:50:38.516Z,10.50
2019-02-22T13:53:07.061Z,10.50
2019-02-22T13:55:35.703Z,10.40
2019-02-22T13:58:05.243Z,10.40
2019-02-22T14:00:34.047Z,10.40
2019-02-22T14:03:05.639Z,10.50
2019-02-22T14:05:34.189Z,10.40
2019-02-22T14:08:05.138Z,10.40
2019-02-22T14:10:33.666Z,10.50
2019-02-22T14:13:04.379Z,10.50
2019-02-22T14:15:38.076Z,10.40
2019-02-22T14:18:03.401Z,10.40
2019-02-22T14:20:33.518Z,10.40
2019-02-22T14:23:03.682Z,10.40
2019-02-22T14:25:32.526Z,10.40
2019-02-22T14:28:01.113Z,10.40
2019-02-22T14:30:29.643Z,10.40
2019-02-22T14:32:58.228Z,10.50
2019-02-22T14:35:26.793Z,10.50
2019-02-22T14:37:55.685Z,10.40
2019-02-22T14:40:26.575Z,10.50
2019-02-22T14:42:55.123Z,10.50
2019-02-22T14:45:23.820Z,10.40
2019-02-22T14:47:52.374Z,10.50
2019-02-22T14:50:23.157Z,10.50
2019-02-22T14:52:53.907Z,10.50
2019-02-22T14:55:22.389Z,10.50
2019-02-22T14:57:53.598Z,10.60
2019-02-22T15:00:23.660Z,10.60
2019-02-22T15:02:52.201Z,10.70
2019-02-22T15:05:20.981Z,10.70
2019-02-22T15:07:49.601Z,10.60
2019-02-22T15:10:18.699Z,10.70
2019-02-22T15:12:50.156Z,10.70
2019-02-22T15:15:23.109Z,10.60
2019-02-22T15:17:53.293Z,10.60
2019-02-22T15:20:21.898Z,10.50
2019-02-22T15:22:50.482Z,10.50
2019-02-22T15:25:19.398Z,10.50
2019-02-22T15:27:51.662Z,10.50
2019-02-22T15:30:20.205Z,10.60
2019-02-22T15:32:48.819Z,10.50
2019-02-22T15:35:18.238Z,10.50
2019-02-22T15:37:51.991Z,10.50
2019-02-22T15:40:25.169Z,10.50
2019-02-22T15:42:58.259Z,10.50
2019-02-22T15:45:26.893Z,10.50
2019-02-22T15:48:00.898Z,10.50
2019-02-22T15:50:29.444Z,10.50
2019-02-22T15:52:58.009Z,10.40
2019-02-22T15:55:29.042Z,10.40
2019-02-22T15:57:57.662Z,10.40
2019-02-22T16:00:34.626Z,10.40
2019-02-22T16:03:04.420Z,10.50
2019-02-22T16:05:41.066Z,10.50
2019-02-22T16:08:22.771Z,10.50
2019-02-22T16:10:57.361Z,10.40
2019-02-22T16:13:31.891Z,10.30
2019-02-22T16:16:00.471Z,10.30
2019-02-22T16:18:29.071Z,10.20
2019-02-22T16:20:57.746Z,10.20
2019-02-22T16:23:26.301Z,10.20
2019-02-22T16:25:56.403Z,10.20
2019-02-22T16:28:25.002Z,10.20
2019-02-22T16:30:53.789Z,10.10
2019-02-22T16:33:37.394Z,10.10
2019-02-22T16:36:08.960Z,10.20
2019-02-22T16:38:37.543Z,10.10
2019-02-22T16:41:08.945Z,10.10
2019-02-22T16:43:59.968Z,10.10
2019-02-22T16:46:34.985Z,10.10
2019-02-22T16:48:58.779Z,10.10
2019-02-22T16:51:27.386Z,10.10
2019-02-22T16:53:55.911Z,10.00
2019-02-22T16:56:24.518Z,10.00
2019-02-22T16:58:55.992Z,10.00
2019-02-22T17:01:24.537Z,10.00
2019-02-22T17:03:53.111Z,10.00
2019-02-22T17:06:24.410Z,10.00
2019-02-22T17:09:02.786Z,9.90
2019-02-22T17:11:34.431Z,9.90
2019-02-22T17:14:03.377Z,9.90
2019-02-22T17:16:31.966Z,9.90
2019-02-22T17:19:00.508Z,9.80
2019-02-22T17:21:32.106Z,9.80
2019-02-22T17:24:00.581Z,9.80
2019-02-22T17:26:29.764Z,9.80
2019-02-22T17:28:58.350Z,9.80
2019-02-22T17:31:26.879Z,9.80
2019-02-22T17:33:56.370Z,9.70
2019-02-22T17:36:27.132Z,9.70
2019-02-22T17:38:55.200Z,9.60
2019-02-22T17:41:23.756Z,9.60
2019-02-22T17:43:52.308Z,9.50
2019-02-22T17:46:20.893Z,9.50
2019-02-22T17:48:55.010Z,9.50
2019-02-22T17:51:28.992Z,9.50
2019-02-22T17:54:06.955Z,9.50
2019-02-22T17:56:36.130Z,9.50
2019-02-22T17:59:04.707Z,9.50
2019-02-22T18:01:33.260Z,9.50
2019-02-22T18:04:03.620Z,9.40
2019-02-22T18:06:32.234Z,9.40
2019-02-22T18:09:00.825Z,9.40
2019-02-22T18:11:29.435Z,9.30
2019-02-22T18:14:05.006Z,9.30
2019-02-22T18:16:34.607Z,9.30
2019-02-22T18:19:03.220Z,9.20
2019-02-22T18:21:39.314Z,9.20
2019-02-22T18:24:07.895Z,9.20
2019-02-22T18:26:37.780Z,9.20
2019-02-22T18:29:09.109Z,9.20
2019-02-22T18:31:37.594Z,9.20
2019-02-22T18:34:06.254Z,9.20
2019-02-22T18:36:34.811Z,9.20
2019-02-22T18:39:04.901Z,9.20
2019-02-22T18:41:33.489Z,9.20
2019-02-22T18:44:02.061Z,9.10
2019-02-22T18:46:33.442Z,9.10
2019-02-22T18:49:06.365Z,9.10
2019-02-22T18:51:34.934Z,9.00
2019-02-22T18:54:03.587Z,9.00
2019-02-22T18:56:33.820Z,8.90
2019-02-22T18:59:02.413Z,8.90
2019-02-22T19:01:33.719Z,8.90
2019-02-22T19:04:02.328Z,8.90
2019-02-22T19:06:30.928Z,8.90
2019-02-22T19:08:59.554Z,8.90
2019-02-22T19:11:28.253Z,8.90
2019-02-22T19:13:56.807Z,8.90
2019-02-22T19:16:26.888Z,8.80
2019-02-22T19:18:55.705Z,8.80
2019-02-22T19:21:24.247Z,8.80
2019-02-22T19:23:53.505Z,8.70
2019-02-22T19:26:22.046Z,8.70
2019-02-22T19:28:50.623Z,8.70
2019-02-22T19:31:19.205Z,8.70
2019-02-22T19:33:50.429Z,8.70
2019-02-22T19:36:21.515Z,8.70
2019-02-22T19:38:50.105Z,8.70
2019-02-22T19:41:18.662Z,8.70
2019-02-22T19:43:47.228Z,8.70
2019-02-22T19:46:15.784Z,8.70
2019-02-22T19:48:44.377Z,8.70
2019-02-22T19:51:12.932Z,8.70
2019-02-22T19:53:58.727Z,8.70
2019-02-22T19:56:27.195Z,8.70
2019-02-22T19:58:56.529Z,8.70
2019-02-22T20:01:25.084Z,8.70
2019-02-22T20:03:53.643Z,8.70
2019-02-22T20:06:22.979Z,8.70
2019-02-22T20:08:51.601Z,8.70
2019-02-22T20:11:24.004Z,8.70
2019-02-22T20:13:52.551Z,8.60
2019-02-22T20:16:21.428Z,8.60
2019-02-22T20:18:50.024Z,8.60
2019-02-22T20:21:18.581Z,8.50
2019-02-22T20:23:47.177Z,8.50
2019-02-22T20:26:15.791Z,8.40
2019-02-22T20:28:44.492Z,8.40
2019-02-22T20:31:20.160Z,8.40
2019-02-22T20:33:43.296Z,8.30
2019-02-22T20:36:11.875Z,8.30
2019-02-22T20:38:40.346Z,8.30
2019-02-22T20:41:08.864Z,8.30
2019-02-22T20:43:37.471Z,8.30
2019-02-22T20:46:06.012Z,8.30
2019-02-22T20:48:34.597Z,8.30
2019-02-22T20:51:03.155Z,8.30
2019-02-22T20:53:31.690Z,8.20
2019-02-22T20:56:00.262Z,8.20
2019-02-22T20:58:30.012Z,8.20
2019-02-22T21:00:58.593Z,8.20
2019-02-22T21:03:32.962Z,8.20
2019-02-22T21:06:05.040Z,8.20
2019-02-22T21:08:36.348Z,8.20
2019-02-22T21:11:05.509Z,8.20
2019-02-22T21:13:48.430Z,8.10
2019-02-22T21:16:19.758Z,8.20
2019-02-22T21:18:48.406Z,8.10
2019-02-22T21:21:16.926Z,8.10
2019-02-22T21:23:45.488Z,8.10
2019-02-22T21:26:14.082Z,8.10
2019-02-22T21:28:43.855Z,8.00
2019-02-22T21:31:16.630Z,7.90
2019-02-22T21:33:45.411Z,7.90
2019-02-22T21:36:14.052Z,7.90
2019-02-22T21:38:42.703Z,7.90
2019-02-22T21:41:11.257Z,7.90
2019-02-22T21:43:39.906Z,7.80
2019-02-22T21:46:09.335Z,7.70
2019-02-22T21:48:37.865Z,7.70
2019-02-22T21:51:06.473Z,7.70
2019-02-22T21:53:39.239Z,7.70
2019-02-22T21:56:07.875Z,7.70
2019-02-22T21:58:36.447Z,7.70
2019-02-22T22:01:06.706Z,7.70
2019-02-22T22:03:35.278Z,7.70
2019-02-22T22:06:05.406Z,7.70
2019-02-22T22:08:39.370Z,7.70
2019-02-22T22:11:07.992Z,7.70
2019-02-22T22:13:42.562Z,7.80
2019-02-22T22:16:11.383Z,7.70
2019-02-22T22:18:39.905Z,7.80
2019-02-22T22:21:08.443Z,7.80
2019-02-22T22:23:37.318Z,7.80
2019-02-22T22:26:05.926Z,7.70
2019-02-22T22:28:34.886Z,7.70
2019-02-22T22:31:03.502Z,7.70
2019-02-22T22:33:38.223Z,7.70
2019-02-22T22:36:12.466Z,7.70
2019-02-22T22:38:41.027Z,7.70
2019-02-22T22:41:09.688Z,7.70
2019-02-22T22:43:38.420Z,7.70
2019-02-22T22:46:07.004Z,7.60
2019-02-22T22:48:35.579Z,7.60
2019-02-22T22:51:04.129Z,7.60
2019-02-22T22:53:32.865Z,7.50
2019-02-22T22:56:01.410Z,7.50
2019-02-22T22:58:30.048Z,7.50
2019-02-22T23:01:03.071Z,7.50
2019-02-22T23:03:37.584Z,7.50
2019-02-22T23:06:06.469Z,7.50
2019-02-22T23:08:37.815Z,7.40
2019-02-22T23:11:06.477Z,7.40
2019-02-22T23:13:35.065Z,7.40
2019-02-22T23:16:03.724Z,7.40
2019-02-22T23:18:32.261Z,7.40
2019-02-22T23:21:00.813Z,7.40
2019-02-22T23:23:30.356Z,7.40
2019-02-22T23:26:00.545Z,7.40
2019-02-22T23:28:29.118Z,7.30
2019-02-22T23:30:59.218Z,7.30
2019-02-22T23:33:27.679Z,7.30
2019-02-22T23:35:56.409Z,7.30
2019-02-22T23:38:24.960Z,7.30
2019-02-22T23:40:53.727Z,7.20
2019-02-22T23:43:22.445Z,7.20
2019-02-22T23:45:50.925Z,7.20
2019-02-22T23:48:19.608Z,7.20
2019-02-22T23:50:48.286Z,7.20
2019-02-22T23:53:18.508Z,7.20
2019-02-22T23:55:47.323Z,7.20
2019-02-22T23:58:15.882Z,7.20
